createdAt,value
2023-09-11T00:01:40.392Z,21.76
2023-09-11T00:04:08.356Z,21.75
2023-09-11T00:06:35.297Z,21.76
2023-09-11T00:09:02.263Z,21.79
2023-09-11T00:11:29.046Z,21.72
2023-09-11T00:13:55.945Z,21.51
2023-09-11T00:16:22.692Z,21.39
2023-09-11T00:18:49.510Z,21.55
2023-09-11T00:21:16.244Z,21.68
2023-09-11T00:23:43.081Z,21.65
2023-09-11T00:26:10.018Z,21.66
2023-09-11T00:28:37.060Z,21.74
2023-09-11T00:31:04.028Z,21.74
2023-09-11T00:33:30.836Z,21.69
2023-09-11T00:35:58.487Z,21.55
2023-09-11T00:38:25.565Z,21.48
2023-09-11T00:40:53.702Z,21.55
2023-09-11T00:43:20.484Z,21.65
2023-09-11T00:45:47.846Z,21.66
2023-09-11T00:48:15.145Z,21.74
2023-09-11T00:50:45.456Z,21.41
2023-09-11T00:53:13.157Z,21.37
2023-09-11T00:55:40.460Z,21.31
2023-09-11T00:58:07.594Z,21.38
2023-09-11T01:00:34.521Z,21.37
2023-09-11T01:03:01.538Z,21.30
2023-09-11T01:05:30.452Z,21.24
2023-09-11T01:07:57.315Z,21.28
2023-09-11T01:10:24.230Z,21.13
2023-09-11T01:12:51.162Z,21.14
2023-09-11T01:15:18.217Z,21.11
2023-09-11T01:17:58.565Z,21.08
2023-09-11T01:20:37.210Z,20.97
2023-09-11T01:23:21.745Z,21.01
2023-09-11T01:26:26.789Z,20.81
2023-09-11T01:29:19.827Z,20.57
2023-09-11T01:31:48.229Z,20.50
2023-09-11T01:34:15.165Z,20.53
2023-09-11T01:36:42.121Z,20.67
2023-09-11T01:39:09.420Z,20.63
2023-09-11T01:41:45.530Z,20.77
2023-09-11T01:44:30.871Z,20.75
2023-09-11T01:46:58.838Z,20.67
2023-09-11T01:49:26.859Z,20.69
2023-09-11T01:51:54.256Z,20.83
2023-09-11T01:54:21.851Z,20.93
2023-09-11T01:56:48.872Z,20.65
2023-09-11T01:59:19.179Z,20.72
2023-09-11T02:01:46.229Z,20.45
2023-09-11T02:04:13.536Z,20.67
2023-09-11T02:06:40.482Z,20.72
2023-09-11T02:09:07.484Z,20.57
2023-09-11T02:11:34.313Z,20.40
2023-09-11T02:14:01.182Z,20.38
2023-09-11T02:16:28.243Z,20.32
2023-09-11T02:18:55.079Z,20.39
2023-09-11T02:21:22.396Z,20.35
2023-09-11T02:23:49.287Z,20.29
2023-09-11T02:26:16.213Z,20.18
2023-09-11T02:28:43.386Z,20.33
2023-09-11T02:31:10.528Z,20.40
2023-09-11T02:33:37.468Z,20.45
2023-09-11T02:36:05.237Z,20.45
2023-09-11T02:38:33.210Z,20.25
2023-09-11T02:41:09.216Z,20.18
2023-09-11T02:43:37.524Z,20.36
2023-09-11T02:46:04.593Z,20.28
2023-09-11T02:48:33.783Z,20.25
2023-09-11T02:51:00.873Z,20.32
2023-09-11T02:53:27.761Z,20.04
2023-09-11T02:55:54.553Z,20.08
2023-09-11T02:58:21.287Z,20.12
2023-09-11T03:00:48.214Z,20.05
2023-09-11T03:03:15.168Z,19.97
2023-09-11T03:05:42.564Z,19.98
2023-09-11T03:08:09.492Z,20.15
2023-09-11T03:10:36.647Z,20.12
2023-09-11T03:13:05.019Z,19.91
2023-09-11T03:15:32.188Z,19.88
2023-09-11T03:17:59.536Z,19.75
2023-09-11T03:20:26.362Z,19.73
2023-09-11T03:22:55.255Z,19.88
2023-09-11T03:25:22.157Z,19.64
2023-09-11T03:27:49.003Z,19.61
2023-09-11T03:30:15.916Z,19.53
2023-09-11T03:32:42.771Z,19.43
2023-09-11T03:35:09.681Z,19.57
2023-09-11T03:37:37.305Z,19.54
2023-09-11T03:40:24.609Z,19.56
2023-09-11T03:42:51.369Z,19.51
2023-09-11T03:45:18.183Z,19.51
2023-09-11T03:47:45.005Z,19.51
2023-09-11T03:50:11.937Z,19.50
2023-09-11T03:52:38.799Z,19.50
2023-09-11T03:55:05.748Z,19.51
2023-09-11T03:57:32.715Z,19.45
2023-09-11T03:59:59.608Z,19.43
2023-09-11T04:02:26.578Z,19.33
2023-09-11T04:04:53.370Z,19.30
2023-09-11T04:07:20.161Z,19.32
2023-09-11T04:09:46.955Z,19.35
2023-09-11T04:12:19.362Z,19.30
2023-09-11T04:14:47.241Z,19.32
2023-09-11T04:17:13.996Z,19.30
2023-09-11T04:19:40.969Z,19.24
2023-09-11T04:22:08.306Z,19.28
2023-09-11T04:24:35.074Z,19.18
2023-09-11T04:27:02.374Z,19.18
2023-09-11T04:29:30.487Z,19.19
2023-09-11T04:31:57.577Z,19.19
2023-09-11T04:34:24.501Z,19.20
2023-09-11T04:36:51.571Z,19.26
2023-09-11T04:39:18.725Z,19.16
2023-09-11T04:41:45.722Z,19.23
2023-09-11T04:44:12.498Z,19.18
2023-09-11T04:46:39.381Z,19.18
2023-09-11T04:49:06.623Z,19.12
2023-09-11T04:51:33.625Z,19.09
2023-09-11T04:54:00.563Z,19.13
2023-09-11T04:56:27.486Z,19.03
2023-09-11T04:58:54.235Z,19.09
2023-09-11T05:01:21.164Z,19.09
2023-09-11T05:03:48.140Z,19.09
2023-09-11T05:06:15.613Z,19.29
2023-09-11T05:09:02.217Z,19.18
2023-09-11T05:11:29.183Z,19.13
2023-09-11T05:13:56.012Z,19.16
2023-09-11T05:16:22.822Z,19.13
2023-09-11T05:18:49.788Z,19.13
2023-09-11T05:21:16.676Z,19.15
2023-09-11T05:23:44.418Z,19.18
2023-09-11T05:26:11.509Z,19.16
2023-09-11T05:28:38.574Z,19.20
2023-09-11T05:31:06.700Z,19.24
2023-09-11T05:33:33.698Z,19.24
2023-09-11T05:36:00.782Z,19.19
2023-09-11T05:38:27.669Z,19.30
2023-09-11T05:40:54.474Z,19.26
2023-09-11T05:43:21.270Z,19.32
2023-09-11T05:45:48.344Z,19.43
2023-09-11T05:48:15.765Z,19.43
2023-09-11T05:50:42.848Z,19.47
2023-09-11T05:53:09.829Z,19.43
2023-09-11T05:55:36.812Z,19.57
2023-09-11T05:58:04.020Z,19.57
2023-09-11T06:00:31.138Z,19.61
2023-09-11T06:02:58.199Z,19.78
2023-09-11T06:05:26.584Z,19.87
2023-09-11T06:07:53.623Z,19.88
2023-09-11T06:10:20.497Z,20.07
2023-09-11T06:12:47.506Z,20.12
2023-09-11T06:15:14.434Z,20.15
2023-09-11T06:17:45.090Z,20.19
2023-09-11T06:20:17.419Z,20.22
2023-09-11T06:22:44.929Z,20.36
2023-09-11T06:25:11.992Z,20.50
2023-09-11T06:27:38.766Z,20.57
2023-09-11T06:33:40.387Z,20.66
2023-09-11T06:36:07.406Z,20.69
2023-09-11T06:38:34.170Z,20.76
2023-09-11T06:41:01.013Z,20.75
2023-09-11T06:43:27.869Z,21.00
2023-09-11T06:45:54.695Z,21.10
2023-09-11T06:48:24.049Z,21.20
2023-09-11T06:50:54.702Z,21.32
2023-09-11T06:53:21.681Z,21.35
2023-09-11T06:55:49.301Z,21.38
2023-09-11T06:58:16.610Z,21.52
2023-09-11T07:00:43.607Z,21.56
2023-09-11T07:03:10.665Z,21.64
2023-09-11T07:05:40.109Z,21.78
2023-09-11T07:08:07.313Z,21.90
2023-09-11T07:10:40.688Z,21.90
2023-09-11T07:13:08.025Z,22.19
2023-09-11T07:15:34.809Z,22.64
2023-09-11T07:18:01.878Z,22.91
2023-09-11T07:20:29.046Z,23.28
2023-09-11T07:22:55.811Z,23.70
2023-09-11T07:25:24.916Z,23.83
2023-09-11T07:27:55.253Z,23.96
2023-09-11T07:30:22.134Z,24.25
2023-09-11T07:32:49.147Z,24.35
2023-09-11T07:35:16.357Z,24.39
2023-09-11T07:37:43.174Z,24.59
2023-09-11T07:40:10.218Z,24.90
2023-09-11T07:42:37.806Z,24.96
2023-09-11T07:45:04.955Z,24.96
2023-09-11T07:47:32.041Z,25.04
2023-09-11T07:49:59.085Z,25.10
2023-09-11T07:52:25.836Z,25.19
2023-09-11T07:54:52.588Z,25.60
2023-09-11T07:57:19.392Z,25.45
2023-09-11T07:59:46.299Z,25.67
2023-09-11T08:02:13.110Z,25.74
2023-09-11T08:04:40.789Z,25.80
2023-09-11T08:07:07.786Z,26.22
2023-09-11T08:09:34.566Z,26.40
2023-09-11T08:12:06.255Z,26.57
2023-09-11T08:14:33.131Z,26.97
2023-09-11T08:17:00.594Z,27.17
2023-09-11T08:19:27.383Z,27.72
2023-09-11T08:21:55.747Z,27.72
2023-09-11T08:24:24.256Z,27.37
2023-09-11T08:26:51.082Z,27.53
2023-09-11T08:29:19.969Z,27.63
2023-09-11T08:31:47.147Z,27.93
2023-09-11T08:34:14.089Z,28.30
2023-09-11T08:36:41.253Z,27.99
2023-09-11T08:39:08.916Z,27.83
2023-09-11T08:41:36.813Z,28.67
2023-09-11T08:44:03.747Z,28.48
2023-09-11T08:46:34.855Z,28.45
2023-09-11T08:49:04.129Z,28.47
2023-09-11T08:51:38.675Z,29.29
2023-09-11T08:54:06.377Z,29.09
2023-09-11T08:56:33.485Z,28.82
2023-09-11T08:59:00.867Z,28.31
2023-09-11T09:01:29.433Z,28.74
2023-09-11T09:03:58.030Z,28.67
2023-09-11T09:06:25.271Z,29.33
2023-09-11T09:08:52.464Z,29.19
2023-09-11T09:11:21.883Z,29.12
2023-09-11T09:13:48.745Z,29.97
2023-09-11T09:16:15.574Z,29.72
2023-09-11T09:18:50.842Z,29.87
2023-09-11T09:21:20.364Z,30.04
2023-09-11T09:23:50.070Z,30.22
2023-09-11T09:26:19.414Z,30.56
2023-09-11T09:28:55.475Z,30.75
2023-09-11T09:31:24.428Z,30.75
2023-09-11T09:33:58.209Z,30.55
2023-09-11T09:36:25.204Z,30.70
2023-09-11T09:38:52.836Z,30.87
2023-09-11T09:41:22.514Z,30.62
2023-09-11T09:43:54.994Z,31.16
2023-09-11T09:46:23.990Z,31.57
2023-09-11T09:48:51.441Z,32.16
2023-09-11T09:51:18.382Z,32.66
2023-09-11T09:53:48.043Z,33.24
2023-09-11T09:56:16.046Z,32.49
2023-09-11T09:58:45.962Z,32.66
2023-09-11T10:01:16.256Z,32.79
2023-09-11T10:03:48.143Z,31.68
2023-09-11T10:06:24.435Z,32.33
2023-09-11T10:09:12.602Z,32.84
2023-09-11T10:11:41.213Z,32.91
2023-09-11T10:14:09.959Z,33.41
2023-09-11T10:16:37.152Z,33.77
2023-09-11T10:19:04.783Z,33.41
2023-09-11T10:21:33.476Z,33.95
2023-09-11T10:24:00.647Z,34.16
2023-09-11T10:26:41.737Z,33.79
2023-09-11T10:29:12.157Z,34.63
2023-09-11T10:31:54.943Z,34.40
2023-09-11T10:34:22.504Z,34.77
2023-09-11T10:36:58.262Z,34.36
2023-09-11T10:39:25.853Z,34.50
2023-09-11T10:41:53.364Z,34.32
2023-09-11T10:44:20.562Z,35.05
2023-09-11T10:46:51.959Z,35.25
2023-09-11T10:49:21.235Z,34.80
2023-09-11T10:51:49.231Z,35.15
2023-09-11T10:54:25.283Z,34.29
2023-09-11T10:56:53.300Z,34.47
2023-09-11T10:59:23.914Z,35.15
2023-09-11T11:01:51.705Z,34.16
2023-09-11T11:04:22.160Z,35.58
2023-09-11T11:06:52.563Z,35.08
2023-09-11T11:09:34.718Z,34.87
2023-09-11T11:12:08.010Z,35.08
2023-09-11T11:14:35.428Z,34.86
2023-09-11T11:17:04.959Z,35.57
2023-09-11T11:19:37.231Z,35.98
2023-09-11T11:22:08.176Z,35.92
2023-09-11T11:24:50.734Z,35.78
2023-09-11T11:27:17.701Z,35.61
2023-09-11T11:29:44.569Z,36.05
2023-09-11T11:32:13.516Z,36.53
2023-09-11T11:34:42.901Z,36.37
2023-09-11T11:37:12.021Z,35.93
2023-09-11T11:39:39.157Z,35.03
2023-09-11T11:42:08.317Z,35.76
2023-09-11T11:44:36.968Z,36.48
2023-09-11T11:47:04.523Z,37.03
2023-09-11T11:49:31.664Z,36.43
2023-09-11T11:52:03.113Z,36.29
2023-09-11T11:54:31.043Z,36.09
2023-09-11T11:56:59.569Z,36.50
2023-09-11T11:59:40.666Z,36.76
2023-09-11T12:02:20.672Z,35.24
2023-09-11T12:04:50.082Z,35.58
2023-09-11T12:07:18.106Z,36.39
2023-09-11T12:09:45.550Z,35.10
2023-09-11T12:12:12.558Z,34.74
2023-09-11T12:14:40.549Z,36.17
2023-09-11T12:17:11.342Z,36.37
2023-09-11T12:19:38.202Z,36.88
2023-09-11T12:22:06.128Z,36.73
2023-09-11T12:24:33.077Z,35.28
2023-09-11T12:27:01.341Z,36.37
2023-09-11T12:29:31.222Z,37.14
2023-09-11T12:31:58.933Z,37.29
2023-09-11T12:34:25.814Z,36.60
2023-09-11T12:36:52.730Z,36.27
2023-09-11T12:39:19.983Z,36.09
2023-09-11T12:41:47.501Z,36.53
2023-09-11T12:44:14.424Z,36.32
2023-09-11T12:46:41.297Z,37.13
2023-09-11T12:49:08.225Z,36.71
2023-09-11T12:51:35.288Z,36.57
2023-09-11T12:54:03.613Z,35.51
2023-09-11T12:56:32.640Z,36.30
2023-09-11T12:58:59.867Z,36.71
2023-09-11T13:01:33.658Z,35.95
2023-09-11T13:04:00.756Z,36.26
2023-09-11T13:06:32.427Z,36.77
2023-09-11T13:08:59.256Z,36.30
2023-09-11T13:11:26.904Z,35.96
2023-09-11T13:14:08.325Z,36.37
2023-09-11T13:16:41.497Z,35.96
2023-09-11T13:19:08.333Z,35.90
2023-09-11T13:21:35.150Z,35.90
2023-09-11T13:24:02.234Z,36.20
2023-09-11T13:26:29.804Z,36.08
2023-09-11T13:28:56.536Z,35.65
2023-09-11T13:31:23.326Z,35.83
2023-09-11T13:33:51.529Z,35.65
2023-09-11T13:36:18.517Z,35.96
2023-09-11T13:38:45.765Z,35.51
2023-09-11T13:41:12.782Z,36.37
2023-09-11T13:43:39.876Z,36.46
2023-09-11T13:46:07.200Z,35.66
2023-09-11T13:48:34.246Z,35.52
2023-09-11T13:51:01.280Z,35.89
2023-09-11T13:53:28.190Z,35.58
2023-09-11T13:55:54.994Z,35.46
2023-09-11T13:58:21.767Z,36.09
2023-09-11T14:00:48.536Z,35.38
2023-09-11T14:03:15.916Z,35.83
2023-09-11T14:05:46.585Z,35.72
2023-09-11T14:08:14.900Z,35.62
2023-09-11T14:10:41.737Z,36.12
2023-09-11T14:13:11.781Z,36.20
2023-09-11T14:15:39.557Z,36.05
2023-09-11T14:18:07.074Z,36.94
2023-09-11T14:20:34.142Z,36.44
2023-09-11T14:23:00.965Z,36.73
2023-09-11T14:25:27.741Z,36.50
2023-09-11T14:27:54.518Z,36.46
2023-09-11T14:30:21.398Z,36.15
2023-09-11T14:32:48.384Z,35.72
2023-09-11T14:35:15.305Z,34.95
2023-09-11T14:37:42.260Z,35.79
2023-09-11T14:40:11.238Z,35.21
2023-09-11T14:42:38.139Z,35.85
2023-09-11T14:45:06.656Z,35.78
2023-09-11T14:47:33.654Z,35.93
2023-09-11T14:50:02.102Z,35.93
2023-09-11T14:52:29.550Z,35.99
2023-09-11T14:54:56.377Z,36.20
2023-09-11T14:57:23.639Z,35.57
2023-09-11T14:59:50.706Z,35.64
2023-09-11T15:02:17.805Z,35.90
2023-09-11T15:04:51.039Z,36.27
2023-09-11T15:07:20.379Z,36.06
2023-09-11T15:09:48.667Z,36.19
2023-09-11T15:12:15.935Z,35.73
2023-09-11T15:14:43.439Z,35.48
2023-09-11T15:17:10.957Z,35.58
2023-09-11T15:19:38.073Z,35.51
2023-09-11T15:22:08.493Z,35.52
2023-09-11T15:24:36.377Z,34.68
2023-09-11T15:27:04.762Z,34.46
2023-09-11T15:29:31.720Z,34.08
2023-09-11T15:32:11.232Z,33.93
2023-09-11T15:34:42.084Z,33.40
2023-09-11T15:37:16.277Z,33.10
2023-09-11T15:39:44.021Z,33.51
2023-09-11T15:42:11.135Z,34.18
2023-09-11T15:44:38.229Z,34.36
2023-09-11T15:47:05.258Z,34.56
2023-09-11T15:49:31.987Z,34.71
2023-09-11T15:52:05.456Z,34.71
2023-09-11T15:54:34.383Z,34.88
2023-09-11T15:57:01.539Z,34.60
2023-09-11T15:59:28.638Z,34.47
2023-09-11T16:01:55.356Z,33.84
2023-09-11T16:04:22.326Z,33.77
2023-09-11T16:06:49.289Z,34.36
2023-09-11T16:09:16.251Z,33.44
2023-09-11T16:11:43.357Z,33.38
2023-09-11T16:14:10.307Z,33.52
2023-09-11T16:16:38.379Z,33.66
2023-09-11T16:19:05.286Z,33.33
2023-09-11T16:21:40.196Z,32.59
2023-09-11T16:24:09.060Z,32.76
2023-09-11T16:26:37.098Z,32.62
2023-09-11T16:29:03.869Z,32.52
2023-09-11T16:31:31.192Z,32.15
2023-09-11T16:33:58.740Z,32.35
2023-09-11T16:36:25.991Z,32.73
2023-09-11T16:38:53.028Z,32.73
2023-09-11T16:41:19.856Z,32.94
2023-09-11T16:43:46.659Z,32.53
2023-09-11T16:46:13.365Z,32.56
2023-09-11T16:48:40.754Z,32.29
2023-09-11T16:51:08.047Z,32.05
2023-09-11T16:53:35.027Z,32.28
2023-09-11T16:56:01.805Z,32.39
2023-09-11T16:58:28.479Z,32.16
2023-09-11T17:01:04.294Z,32.15
2023-09-11T17:03:31.200Z,31.94
2023-09-11T17:05:58.189Z,31.72
2023-09-11T17:08:25.089Z,31.68
2023-09-11T17:10:52.388Z,31.21
2023-09-11T17:13:21.175Z,31.17
2023-09-11T17:15:48.115Z,30.75
2023-09-11T17:18:15.366Z,30.61
2023-09-11T17:20:43.129Z,30.33
2023-09-11T17:23:11.900Z,30.28
2023-09-11T17:25:39.027Z,30.07
2023-09-11T17:28:05.952Z,29.94
2023-09-11T17:30:32.824Z,29.90
2023-09-11T17:32:59.686Z,29.88
2023-09-11T17:35:26.572Z,29.87
2023-09-11T17:37:53.311Z,29.53
2023-09-11T17:40:20.190Z,29.40
2023-09-11T17:42:47.351Z,29.32
2023-09-11T17:45:14.140Z,29.23
2023-09-11T17:47:41.421Z,29.20
2023-09-11T17:50:08.709Z,28.98
2023-09-11T17:52:35.852Z,28.94
2023-09-11T17:58:41.430Z,28.81
2023-09-11T18:01:08.446Z,28.88
2023-09-11T18:03:35.587Z,28.68
2023-09-11T18:06:02.582Z,28.67
2023-09-11T18:08:29.371Z,28.51
2023-09-11T18:10:56.157Z,28.56
2023-09-11T18:13:22.996Z,28.36
2023-09-11T18:15:51.132Z,28.17
2023-09-11T18:18:18.046Z,28.21
2023-09-11T18:20:45.814Z,28.10
2023-09-11T18:23:12.927Z,28.13
2023-09-11T18:25:40.373Z,28.07
2023-09-11T18:28:07.243Z,28.20
2023-09-11T18:30:34.529Z,28.00
2023-09-11T18:33:02.552Z,28.01
2023-09-11T18:35:29.842Z,27.99
2023-09-11T18:37:56.619Z,27.96
2023-09-11T18:40:23.343Z,27.97
2023-09-11T18:42:50.236Z,28.01
2023-09-11T18:45:17.409Z,27.80
2023-09-11T18:47:44.479Z,27.79
2023-09-11T18:50:11.313Z,27.70
2023-09-11T18:52:38.192Z,27.63
2023-09-11T18:55:05.683Z,27.57
2023-09-11T18:57:32.918Z,27.58
2023-09-11T18:59:59.814Z,27.61
2023-09-11T19:02:26.821Z,27.43
2023-09-11T19:04:53.645Z,27.41
2023-09-11T19:07:20.459Z,27.27
2023-09-11T19:09:47.669Z,27.01
2023-09-11T19:12:14.366Z,26.83
2023-09-11T19:14:41.176Z,26.90
2023-09-11T19:17:07.884Z,27.00
2023-09-11T19:19:36.350Z,26.93
2023-09-11T19:22:07.338Z,26.79
2023-09-11T19:24:34.614Z,26.70
2023-09-11T19:27:01.350Z,26.71
2023-09-11T19:29:28.693Z,26.62
2023-09-11T19:31:56.165Z,26.64
2023-09-11T19:34:23.052Z,26.60
2023-09-11T19:36:49.904Z,26.70
2023-09-11T19:39:17.298Z,26.74
2023-09-11T19:41:44.385Z,26.63
2023-09-11T19:44:13.779Z,26.54
2023-09-11T19:46:41.166Z,26.37
2023-09-11T19:49:07.992Z,26.33
2023-09-11T19:51:35.020Z,26.13
2023-09-11T19:54:01.868Z,25.94
2023-09-11T19:56:28.829Z,25.80
2023-09-11T19:58:55.589Z,25.71
2023-09-11T20:01:22.574Z,25.70
2023-09-11T20:03:49.578Z,25.64
2023-09-11T20:06:16.623Z,25.78
2023-09-11T20:08:43.739Z,25.67
2023-09-11T20:11:10.925Z,25.65
2023-09-11T20:13:37.783Z,25.61
2023-09-11T20:16:05.787Z,25.61
2023-09-11T20:18:33.523Z,25.24
2023-09-11T20:21:01.095Z,25.09
2023-09-11T20:23:27.953Z,25.02
2023-09-11T20:25:54.935Z,25.09
2023-09-11T20:28:21.701Z,25.13
2023-09-11T20:30:48.534Z,25.28
2023-09-11T20:33:15.347Z,25.15
2023-09-11T20:35:42.188Z,25.13
2023-09-11T20:38:08.944Z,25.17
2023-09-11T20:40:35.709Z,25.19
2023-09-11T20:43:03.733Z,25.34
2023-09-11T20:45:30.786Z,25.36
2023-09-11T20:47:57.846Z,25.47
2023-09-11T20:50:24.674Z,25.40
2023-09-11T20:52:51.528Z,25.17
2023-09-11T20:55:18.519Z,25.03
2023-09-11T20:57:47.999Z,25.15
2023-09-11T21:00:15.563Z,25.07
2023-09-11T21:02:42.463Z,24.92
2023-09-11T21:05:09.378Z,24.96
2023-09-11T21:07:36.248Z,25.10
2023-09-11T21:10:03.233Z,24.89
2023-09-11T21:12:30.029Z,24.95
2023-09-11T21:14:57.025Z,25.04
2023-09-11T21:17:23.788Z,25.04
2023-09-11T21:19:50.525Z,25.15
2023-09-11T21:22:17.914Z,25.07
2023-09-11T21:24:44.668Z,25.06
2023-09-11T21:27:11.469Z,25.06
2023-09-11T21:29:38.325Z,24.92
2023-09-11T21:32:05.497Z,24.92
2023-09-11T21:34:32.392Z,24.93
2023-09-11T21:37:00.835Z,24.80
2023-09-11T21:39:27.653Z,24.83
2023-09-11T21:41:54.504Z,24.71
2023-09-11T21:44:21.350Z,24.65
2023-09-11T21:46:48.284Z,24.48
2023-09-11T21:49:15.197Z,24.48
2023-09-11T21:51:42.043Z,24.48
2023-09-11T21:54:15.159Z,24.47
2023-09-11T21:56:43.150Z,24.41
2023-09-11T21:59:10.037Z,24.42
2023-09-11T22:01:37.325Z,24.37
2023-09-11T22:04:04.778Z,24.47
2023-09-11T22:06:31.779Z,24.38
2023-09-11T22:08:58.568Z,24.22
2023-09-11T22:11:25.439Z,24.34
2023-09-11T22:13:52.381Z,24.21
2023-09-11T22:16:19.576Z,24.14
2023-09-11T22:18:46.662Z,24.02
2023-09-11T22:21:13.509Z,24.04
2023-09-11T22:23:40.896Z,24.00
2023-09-11T22:26:07.787Z,23.87
2023-09-11T22:28:34.646Z,23.86
2023-09-11T22:31:01.627Z,23.71
2023-09-11T22:33:28.459Z,23.71
2023-09-11T22:35:55.660Z,23.77
2023-09-11T22:38:22.437Z,23.83
2023-09-11T22:40:49.217Z,23.74
2023-09-11T22:43:16.127Z,23.67
2023-09-11T22:45:42.975Z,23.49
2023-09-11T22:48:09.933Z,23.50
2023-09-11T22:50:38.880Z,23.45
2023-09-11T22:53:06.230Z,23.42
2023-09-11T22:55:37.323Z,23.47
2023-09-11T22:58:05.054Z,23.36
2023-09-11T23:00:36.069Z,23.35
2023-09-11T23:03:05.673Z,23.36
2023-09-11T23:05:32.875Z,23.28
2023-09-11T23:08:00.690Z,23.21
2023-09-11T23:10:28.894Z,23.22
2023-09-11T23:12:55.857Z,23.26
2023-09-11T23:15:22.953Z,23.32
2023-09-11T23:17:49.996Z,23.19
2023-09-11T23:20:17.173Z,23.16
2023-09-11T23:22:43.985Z,23.16
2023-09-11T23:25:10.899Z,23.15
2023-09-11T23:27:38.197Z,23.07
2023-09-11T23:30:06.102Z,23.02
2023-09-11T23:32:33.140Z,22.91
2023-09-11T23:35:00.014Z,22.90
2023-09-11T23:37:28.674Z,22.87
2023-09-11T23:39:55.400Z,22.84
2023-09-11T23:42:22.220Z,22.74
2023-09-11T23:44:49.297Z,22.74
2023-09-11T23:47:16.143Z,22.80
2023-09-11T23:49:42.933Z,22.74
2023-09-11T23:52:23.870Z,22.64
2023-09-11T23:54:54.307Z,22.57
